PHENX84 YJST-YCVA
Flight info
| Callsign | PHENX84 |
|---|---|
| Flight time | 0h 40m |
| Altitude | 3000 |
| Route | DCT |
| Aircraft | C172/L-SFG/C |
Departure
| Time | 2026-05-04 12:12 |
|---|---|
| Airport | Hubert Wilkins Airstrip (YJST) |
Arrival
| Time | 2026-05-04 12:53 |
|---|---|
| Airport | Clare Valley Aerodrome (YCVA) |
| Time | Latitude | Longitude | Altitude | Speed | Heading |
|---|---|---|---|---|---|
| 2026-05-04 12:11 | -33.19676 | 138.61714 | 1540 ft | 0 kts | 92° |
| 2026-05-04 12:12 | -33.19683 | 138.61744 | 1549 ft | 15 kts | 125° |
| 2026-05-04 12:12 | -33.19773 | 138.61791 | 1598 ft | 34 kts | 108° |
| 2026-05-04 12:12 | -33.19803 | 138.62192 | 1647 ft | 70 kts | 118° |
| 2026-05-04 12:13 | -33.19755 | 138.62499 | 1887 ft | 18 kts | 172° |
| 2026-05-04 12:14 | -33.19924 | 138.62140 | 1562 ft | 0 kts | 33° |
| 2026-05-04 12:18 | -33.19899 | 138.62174 | 1563 ft | 13 kts | 47° |
| 2026-05-04 12:18 | -33.19829 | 138.62184 | 1599 ft | 15 kts | 295° |
| 2026-05-04 12:19 | -33.19758 | 138.62020 | 1722 ft | 27 kts | 208° |
| 2026-05-04 12:19 | -33.19889 | 138.61910 | 1743 ft | 47 kts | 240° |
| 2026-05-04 12:19 | -33.20186 | 138.61932 | 1824 ft | 39 kts | 159° |
| 2026-05-04 12:19 | -33.20449 | 138.62005 | 1849 ft | 47 kts | 236° |
| 2026-05-04 12:20 | -33.20837 | 138.61868 | 1691 ft | 78 kts | 190° |
| 2026-05-04 12:20 | -33.21355 | 138.61763 | 1689 ft | 75 kts | 207° |
| 2026-05-04 12:20 | -33.21782 | 138.61427 | 1690 ft | 73 kts | 217° |
| 2026-05-04 12:20 | -33.22196 | 138.61102 | 1716 ft | 68 kts | 213° |
| 2026-05-04 12:21 | -33.22539 | 138.60783 | 1768 ft | 63 kts | 226° |
| 2026-05-04 12:21 | -33.22851 | 138.60460 | 1768 ft | 67 kts | 216° |
| 2026-05-04 12:21 | -33.23225 | 138.60145 | 1762 ft | 70 kts | 219° |
| 2026-05-04 12:21 | -33.23664 | 138.59802 | 1717 ft | 75 kts | 211° |
| 2026-05-04 12:22 | -33.24116 | 138.59494 | 1699 ft | 76 kts | 216° |
| 2026-05-04 12:22 | -33.24547 | 138.59147 | 1698 ft | 75 kts | 213° |
| 2026-05-04 12:22 | -33.24926 | 138.58867 | 1848 ft | 50 kts | 226° |
| 2026-05-04 12:22 | -33.25266 | 138.58629 | 1680 ft | 73 kts | 246° |
| 2026-05-04 12:23 | -33.25695 | 138.58203 | 1555 ft | 83 kts | 216° |
| 2026-05-04 12:23 | -33.26184 | 138.57886 | 1566 ft | 77 kts | 204° |
| 2026-05-04 12:23 | -33.26668 | 138.57743 | 1587 ft | 73 kts | 193° |
| 2026-05-04 12:23 | -33.27169 | 138.57711 | 1639 ft | 65 kts | 186° |
| 2026-05-04 12:24 | -33.27678 | 138.57698 | 1565 ft | 77 kts | 181° |
| 2026-05-04 12:24 | -33.28186 | 138.57729 | 1618 ft | 70 kts | 182° |
| 2026-05-04 12:24 | -33.28720 | 138.57738 | 1519 ft | 83 kts | 176° |
| 2026-05-04 12:24 | -33.29300 | 138.57849 | 1464 ft | 85 kts | 170° |
| 2026-05-04 12:25 | -33.29689 | 138.57926 | 1468 ft | 81 kts | 170° |
| 2026-05-04 12:25 | -33.30440 | 138.58175 | 1407 ft | 82 kts | 164° |
| 2026-05-04 12:25 | -33.30800 | 138.58281 | 1400 ft | 81 kts | 166° |
| 2026-05-04 12:25 | -33.31348 | 138.58403 | 1387 ft | 80 kts | 175° |
| 2026-05-04 12:26 | -33.31886 | 138.58491 | 1402 ft | 77 kts | 172° |
| 2026-05-04 12:26 | -33.32444 | 138.58548 | 1326 ft | 85 kts | 177° |
| 2026-05-04 12:26 | -33.33006 | 138.58643 | 1335 ft | 80 kts | 171° |
| 2026-05-04 12:26 | -33.33498 | 138.58695 | 1414 ft | 70 kts | 180° |
| 2026-05-04 12:27 | -33.34030 | 138.58767 | 1356 ft | 77 kts | 171° |
| 2026-05-04 12:27 | -33.34567 | 138.58865 | 1344 ft | 78 kts | 174° |
| 2026-05-04 12:27 | -33.35112 | 138.58923 | 1321 ft | 79 kts | 175° |
| 2026-05-04 12:27 | -33.35652 | 138.58986 | 1353 ft | 72 kts | 174° |
| 2026-05-04 12:28 | -33.36116 | 138.58944 | 1374 ft | 72 kts | 204° |
| 2026-05-04 12:28 | -33.36288 | 138.58374 | 1336 ft | 76 kts | 286° |
| 2026-05-04 12:28 | -33.35823 | 138.58204 | 1367 ft | 71 kts | 358° |
| 2026-05-04 12:28 | -33.35330 | 138.58204 | 1386 ft | 71 kts | 359° |
| 2026-05-04 12:29 | -33.34909 | 138.58548 | 1402 ft | 92 kts | 86° |
| 2026-05-04 12:29 | -33.35174 | 138.59163 | 1388 ft | 89 kts | 72° |
| 2026-05-04 12:29 | -33.34807 | 138.59762 | 1366 ft | 81 kts | 52° |
| 2026-05-04 12:29 | -33.34584 | 138.60339 | 1407 ft | 71 kts | 68° |
| 2026-05-04 12:30 | -33.34467 | 138.60909 | 1429 ft | 71 kts | 79° |
| 2026-05-04 12:30 | -33.34415 | 138.61414 | 1549 ft | 55 kts | 113° |
| 2026-05-04 12:30 | -33.34534 | 138.61838 | 1591 ft | 71 kts | 126° |
| 2026-05-04 12:30 | -33.34309 | 138.61862 | 1984 ft | 38 kts | 299° |
| 2026-05-04 12:31 | -33.34225 | 138.61668 | 1751 ft | 52 kts | 35° |
| 2026-05-04 12:31 | -33.34161 | 138.62169 | 1704 ft | 60 kts | 108° |
| 2026-05-04 12:31 | -33.34284 | 138.62639 | 1719 ft | 61 kts | 119° |
| 2026-05-04 12:31 | -33.34426 | 138.63166 | 1677 ft | 71 kts | 108° |
| 2026-05-04 12:32 | -33.34532 | 138.63693 | 1750 ft | 62 kts | 113° |
| 2026-05-04 12:32 | -33.34869 | 138.64636 | 1725 ft | 73 kts | 104° |
| 2026-05-04 12:32 | -33.34770 | 138.65306 | 1599 ft | 87 kts | 33° |
| 2026-05-04 12:33 | -33.34506 | 138.64916 | 1516 ft | 88 kts | 261° |
| 2026-05-04 12:33 | -33.34469 | 138.64218 | 1512 ft | 78 kts | 272° |
| 2026-05-04 12:33 | -33.34437 | 138.63632 | 1564 ft | 63 kts | 279° |
| 2026-05-04 12:33 | -33.34327 | 138.63180 | 1595 ft | 58 kts | 289° |
| 2026-05-04 12:34 | -33.34211 | 138.62689 | 1612 ft | 61 kts | 287° |
| 2026-05-04 12:34 | -33.34114 | 138.62218 | 1688 ft | 49 kts | 287° |
| 2026-05-04 12:34 | -33.34132 | 138.61926 | 1657 ft | 28 kts | 304° |
| 2026-05-04 12:34 | -33.34295 | 138.61765 | 1691 ft | 25 kts | 235° |
| 2026-05-04 12:35 | -33.34334 | 138.61688 | 1602 ft | 2 kts | 292° |
| 2026-05-04 12:35 | -33.34334 | 138.61687 | 1570 ft | 0 kts | 284° |
| 2026-05-04 12:35 | -33.34334 | 138.61688 | 1570 ft | 0 kts | 284° |
| 2026-05-04 12:36 | -33.34333 | 138.61687 | 1570 ft | 0 kts | 284° |
| 2026-05-04 12:36 | -33.34334 | 138.61687 | 1570 ft | 0 kts | 284° |
| 2026-05-04 12:38 | -33.34333 | 138.61687 | 1570 ft | 0 kts | 284° |
| 2026-05-04 12:38 | -33.34333 | 138.61688 | 1570 ft | 0 kts | 284° |
| 2026-05-04 12:38 | -33.34334 | 138.61687 | 1570 ft | 0 kts | 284° |
| 2026-05-04 12:39 | -33.34333 | 138.61687 | 1571 ft | 0 kts | 284° |
| 2026-05-04 12:39 | -33.34333 | 138.61682 | 1565 ft | 8 kts | 284° |
| 2026-05-04 12:40 | -33.34269 | 138.61348 | 1618 ft | 72 kts | 276° |
| 2026-05-04 12:40 | -33.34323 | 138.60556 | 1557 ft | 114 kts | 262° |
| 2026-05-04 12:40 | -33.34674 | 138.59577 | 1441 ft | 141 kts | 234° |
| 2026-05-04 12:40 | -33.35515 | 138.59006 | 1330 ft | 134 kts | 194° |
| 2026-05-04 12:41 | -33.36370 | 138.58780 | 1325 ft | 116 kts | 193° |
| 2026-05-04 12:41 | -33.37167 | 138.58595 | 1244 ft | 115 kts | 192° |
| 2026-05-04 12:41 | -33.37923 | 138.58437 | 1267 ft | 108 kts | 191° |
| 2026-05-04 12:41 | -33.38658 | 138.58284 | 1260 ft | 111 kts | 192° |
| 2026-05-04 12:42 | -33.39428 | 138.58126 | 1254 ft | 116 kts | 184° |
| 2026-05-04 12:42 | -33.40235 | 138.58151 | 1270 ft | 117 kts | 179° |
| 2026-05-04 12:42 | -33.41042 | 138.58207 | 1293 ft | 118 kts | 179° |
| 2026-05-04 12:42 | -33.41870 | 138.58279 | 1286 ft | 119 kts | 178° |
| 2026-05-04 12:43 | -33.42685 | 138.58318 | 1318 ft | 118 kts | 180° |
| 2026-05-04 12:43 | -33.43505 | 138.58338 | 1355 ft | 118 kts | 180° |
| 2026-05-04 12:43 | -33.44362 | 138.58365 | 1206 ft | 129 kts | 179° |
| 2026-05-04 12:43 | -33.45204 | 138.58435 | 1459 ft | 107 kts | 176° |
| 2026-05-04 12:44 | -33.45862 | 138.58541 | 1779 ft | 90 kts | 174° |
| 2026-05-04 12:44 | -33.46494 | 138.58680 | 1853 ft | 100 kts | 172° |
| 2026-05-04 12:44 | -33.47266 | 138.58861 | 1650 ft | 123 kts | 171° |
| 2026-05-04 12:44 | -33.48115 | 138.59062 | 1591 ft | 124 kts | 170° |
| 2026-05-04 12:45 | -33.48963 | 138.59279 | 1550 ft | 124 kts | 169° |
| 2026-05-04 12:45 | -33.49695 | 138.59716 | 1751 ft | 108 kts | 147° |
| 2026-05-04 12:45 | -33.50206 | 138.60217 | 2128 ft | 84 kts | 144° |
| 2026-05-04 12:45 | -33.50599 | 138.60653 | 2401 ft | 71 kts | 143° |
| 2026-05-04 12:46 | -33.50956 | 138.61067 | 2285 ft | 77 kts | 142° |
| 2026-05-04 12:46 | -33.51508 | 138.61455 | 1836 ft | 110 kts | 173° |
| 2026-05-04 12:46 | -33.52310 | 138.61285 | 1469 ft | 117 kts | 204° |
| 2026-05-04 12:46 | -33.52984 | 138.60860 | 1354 ft | 105 kts | 212° |
| 2026-05-04 12:47 | -33.53600 | 138.60451 | 1294 ft | 93 kts | 200° |
| 2026-05-04 12:47 | -33.54255 | 138.60342 | 1174 ft | 95 kts | 187° |
| 2026-05-04 12:47 | -33.54890 | 138.60298 | 1171 ft | 93 kts | 184° |
| 2026-05-04 12:47 | -33.55604 | 138.60281 | 1259 ft | 110 kts | 181° |
| 2026-05-04 12:48 | -33.56444 | 138.60271 | 1179 ft | 134 kts | 182° |
| 2026-05-04 12:48 | -33.57409 | 138.60159 | 1117 ft | 143 kts | 192° |
| 2026-05-04 12:48 | -33.58320 | 138.59821 | 1149 ft | 131 kts | 200° |
| 2026-05-04 12:48 | -33.59171 | 138.59493 | 1050 ft | 123 kts | 192° |
| 2026-05-04 12:49 | -33.59936 | 138.59471 | 1005 ft | 99 kts | 179° |
| 2026-05-04 12:49 | -33.60628 | 138.59470 | 1069 ft | 105 kts | 199° |
| 2026-05-04 12:49 | -33.60974 | 138.58730 | 1107 ft | 100 kts | 247° |
| 2026-05-04 12:49 | -33.61551 | 138.58460 | 1124 ft | 93 kts | 179° |
| 2026-05-04 12:50 | -33.62197 | 138.58503 | 1102 ft | 93 kts | 178° |
| 2026-05-04 12:50 | -33.62797 | 138.58540 | 1150 ft | 81 kts | 178° |
| 2026-05-04 12:50 | -33.63348 | 138.58583 | 1165 ft | 78 kts | 178° |
| 2026-05-04 12:50 | -33.63910 | 138.58617 | 1136 ft | 80 kts | 178° |
| 2026-05-04 12:51 | -33.64432 | 138.58774 | 1173 ft | 74 kts | 166° |
| 2026-05-04 12:51 | -33.64931 | 138.58936 | 1159 ft | 78 kts | 175° |
| 2026-05-04 12:51 | -33.65463 | 138.59014 | 1139 ft | 81 kts | 175° |
| 2026-05-04 12:51 | -33.66007 | 138.58873 | 1119 ft | 80 kts | 208° |
| 2026-05-04 12:52 | -33.66539 | 138.58759 | 1108 ft | 79 kts | 179° |
| 2026-05-04 12:52 | -33.67059 | 138.58782 | 1173 ft | 73 kts | 185° |
| 2026-05-04 12:52 | -33.67575 | 138.58680 | 1163 ft | 75 kts | 188° |
| 2026-05-04 12:52 | -33.68085 | 138.58631 | 1189 ft | 73 kts | 187° |
| 2026-05-04 12:53 | -33.68612 | 138.58650 | 1147 ft | 77 kts | 178° |
| 2026-05-04 12:53 | -33.69056 | 138.58605 | 1179 ft | 48 kts | 192° |
| 2026-05-04 12:53 | -33.69449 | 138.58524 | 1127 ft | 66 kts | 189° |
| 2026-05-04 12:53 | -33.69925 | 138.58446 | 1124 ft | 72 kts | 192° |
| 2026-05-04 12:54 | -33.70427 | 138.58445 | 1132 ft | 74 kts | 181° |
| 2026-05-04 12:54 | -33.70922 | 138.58474 | 1111 ft | 51 kts | 178° |
| 2026-05-04 12:54 | -33.70954 | 138.58483 | 1093 ft | 0 kts | 195° |
| 2026-05-04 12:54 | -33.70959 | 138.58483 | 1094 ft | 6 kts | 195° |
| 2026-05-04 12:55 | -33.71006 | 138.58411 | 1094 ft | 11 kts | 225° |
| 2026-05-04 12:55 | -33.71006 | 138.58402 | 1093 ft | 0 kts | 227° |
| 2026-05-04 12:57 | -33.71015 | 138.58452 | 1098 ft | 12 kts | 72° |
| 2026-05-04 12:58 | -33.70992 | 138.58483 | 1091 ft | 0 kts | 58° |
| 2026-05-04 13:01 | -33.70984 | 138.58484 | 1096 ft | 0 kts | 127° |
| 2026-05-04 13:01 | -33.70985 | 138.58483 | 1096 ft | 0 kts | 78° |
| 2026-05-04 13:11 | -33.70959 | 138.58537 | 1120 ft | 27 kts | 27° |
| 2026-05-04 13:11 | -33.70653 | 138.58719 | 1167 ft | 73 kts | 20° |
| 2026-05-04 13:12 | -33.70101 | 138.58975 | 1205 ft | 99 kts | 349° |
| 2026-05-04 13:12 | -33.70183 | 138.58345 | 1260 ft | 129 kts | 179° |
| 2026-05-04 13:12 | -33.70976 | 138.58483 | 1118 ft | 105 kts | 174° |
| 2026-05-04 13:12 | -33.71634 | 138.58459 | 1139 ft | 90 kts | 205° |
| 2026-05-04 13:13 | -33.71843 | 138.58789 | 1217 ft | 99 kts | 38° |
| 2026-05-04 13:13 | -33.71097 | 138.58540 | 1112 ft | 119 kts | 333° |
| 2026-05-04 13:13 | -33.70391 | 138.58214 | 1201 ft | 95 kts | 5° |
| 2026-05-04 13:13 | -33.70627 | 138.58630 | 1173 ft | 97 kts | 208° |
| 2026-05-04 13:14 | -33.70875 | 138.58479 | 1099 ft | 15 kts | 189° |
| 2026-05-04 13:14 | -33.70892 | 138.58449 | 1093 ft | 2 kts | 181° |
| 2026-05-04 13:14 | -33.70964 | 138.58470 | 1092 ft | 1 kts | 180° |
| 2026-05-04 13:14 | -33.70965 | 138.58470 | 1091 ft | 0 kts | 180° |
| 2026-05-04 13:16 | -33.70965 | 138.58468 | 1091 ft | 0 kts | 91° |
| 2026-05-04 13:22 | -33.70967 | 138.58466 | 1092 ft | 0 kts | 50° |